sensor_id;sensor_type;location;lat;lon;timestamp;pressure;altitude;pressure_sealevel;temperature;humidity
22862;BME280;11598;50.652;6.172;2022-08-21T00:04:57;96697.03;;;10.95;87.98
22862;BME280;11598;50.652;6.172;2022-08-21T00:14:59;96690.34;;;10.79;88.50
22862;BME280;11598;50.652;6.172;2022-08-21T00:24:59;96668.94;;;10.76;89.23
22862;BME280;11598;50.652;6.172;2022-08-21T00:34:59;96675.09;;;10.75;90.17
22862;BME280;11598;50.652;6.172;2022-08-21T00:45:00;96667.63;;;10.70;89.97
22862;BME280;11598;50.652;6.172;2022-08-21T00:55:02;96664.13;;;10.58;90.37
22862;BME280;11598;50.652;6.172;2022-08-21T01:05:04;96654.31;;;10.62;91.31
22862;BME280;11598;50.652;6.172;2022-08-21T01:15:06;96651.31;;;10.68;91.70
22862;BME280;11598;50.652;6.172;2022-08-21T01:25:09;96651.41;;;10.67;91.96
22862;BME280;11598;50.652;6.172;2022-08-21T01:35:11;96661.31;;;10.62;92.34
22862;BME280;11598;50.652;6.172;2022-08-21T01:45:12;96654.56;;;10.59;92.58
22862;BME280;11598;50.652;6.172;2022-08-21T01:55:13;96638.34;;;10.55;92.85
22862;BME280;11598;50.652;6.172;2022-08-21T02:05:15;96648.97;;;10.52;93.29
22862;BME280;11598;50.652;6.172;2022-08-21T02:15:15;96636.31;;;10.48;93.59
22862;BME280;11598;50.652;6.172;2022-08-21T02:25:17;96638.31;;;10.44;93.85
22862;BME280;11598;50.652;6.172;2022-08-21T02:35:19;96633.38;;;10.52;94.43
22862;BME280;11598;50.652;6.172;2022-08-21T02:45:20;96637.34;;;10.69;94.56
22862;BME280;11598;50.652;6.172;2022-08-21T02:55:22;96637.75;;;10.76;94.71
22862;BME280;11598;50.652;6.172;2022-08-21T03:05:24;96639.19;;;10.80;94.54
22862;BME280;11598;50.652;6.172;2022-08-21T03:15:25;96635.78;;;10.79;94.04
22862;BME280;11598;50.652;6.172;2022-08-21T03:25:26;96623.13;;;10.75;94.07
22862;BME280;11598;50.652;6.172;2022-08-21T03:35:27;96637.69;;;10.65;94.24
22862;BME280;11598;50.652;6.172;2022-08-21T03:45:27;96635.97;;;10.52;93.66
22862;BME280;11598;50.652;6.172;2022-08-21T03:55:29;96640.19;;;10.42;93.54
22862;BME280;11598;50.652;6.172;2022-08-21T04:05:30;96641.31;;;10.38;93.48
22862;BME280;11598;50.652;6.172;2022-08-21T04:15:30;96655.59;;;10.32;93.36
22862;BME280;11598;50.652;6.172;2022-08-21T04:25:31;96663.84;;;10.25;93.69
22862;BME280;11598;50.652;6.172;2022-08-21T04:35:31;96670.09;;;10.22;93.86
22862;BME280;11598;50.652;6.172;2022-08-21T04:45:38;96671.34;;;10.29;94.24
22862;BME280;11598;50.652;6.172;2022-08-21T04:55:40;96656.66;;;10.54;94.09
22862;BME280;11598;50.652;6.172;2022-08-21T05:05:42;96641.22;;;10.88;94.08
22862;BME280;11598;50.652;6.172;2022-08-21T05:15:43;96646.25;;;11.02;93.61
22862;BME280;11598;50.652;6.172;2022-08-21T05:25:43;96645.38;;;11.26;93.78
22862;BME280;11598;50.652;6.172;2022-08-21T05:35:44;96654.03;;;11.84;93.88
22862;BME280;11598;50.652;6.172;2022-08-21T05:45:45;96648.28;;;12.69;92.97
22862;BME280;11598;50.652;6.172;2022-08-21T05:55:46;96654.03;;;13.69;89.30
22862;BME280;11598;50.652;6.172;2022-08-21T06:05:47;96647.41;;;14.67;85.24
22862;BME280;11598;50.652;6.172;2022-08-21T06:15:48;96637.28;;;15.32;82.87
22862;BME280;11598;50.652;6.172;2022-08-21T06:25:49;96645.78;;;15.83;79.94
22862;BME280;11598;50.652;6.172;2022-08-21T06:35:50;96654.41;;;16.31;77.67
22862;BME280;11598;50.652;6.172;2022-08-21T06:45:50;96661.25;;;16.69;75.91
22862;BME280;11598;50.652;6.172;2022-08-21T06:55:51;96657.66;;;17.16;73.46
22862;BME280;11598;50.652;6.172;2022-08-21T07:05:51;96665.66;;;17.94;70.37
22862;BME280;11598;50.652;6.172;2022-08-21T07:15:52;96672.25;;;18.58;68.45
22862;BME280;11598;50.652;6.172;2022-08-21T07:25:52;96666.03;;;19.27;65.26
22862;BME280;11598;50.652;6.172;2022-08-21T07:35:53;96673.59;;;19.71;63.31
22862;BME280;11598;50.652;6.172;2022-08-21T07:45:55;96677.06;;;20.43;61.40
22862;BME280;11598;50.652;6.172;2022-08-21T07:55:57;96663.03;;;20.90;59.44
22862;BME280;11598;50.652;6.172;2022-08-21T08:05:57;96650.13;;;21.19;58.98
22862;BME280;11598;50.652;6.172;2022-08-21T08:15:58;96641.53;;;20.71;59.52
22862;BME280;11598;50.652;6.172;2022-08-21T08:25:59;96645.81;;;20.24;59.55
22862;BME280;11598;50.652;6.172;2022-08-21T08:35:59;96650.63;;;20.12;59.89
22862;BME280;11598;50.652;6.172;2022-08-21T08:46:03;96633.84;;;20.05;60.67
22862;BME280;11598;50.652;6.172;2022-08-21T08:56:05;96630.38;;;20.04;59.63
22862;BME280;11598;50.652;6.172;2022-08-21T09:06:28;96627.44;;;19.99;59.71
22862;BME280;11598;50.652;6.172;2022-08-21T09:27:00;96622.28;;;20.14;59.26
22862;BME280;11598;50.652;6.172;2022-08-21T09:37:02;96615.63;;;20.35;58.27
22862;BME280;11598;50.652;6.172;2022-08-21T09:47:02;96628.09;;;20.49;57.54
22862;BME280;11598;50.652;6.172;2022-08-21T10:07:31;96617.41;;;21.05;56.80
22862;BME280;11598;50.652;6.172;2022-08-21T10:17:43;96611.47;;;21.03;55.88
22862;BME280;11598;50.652;6.172;2022-08-21T10:48:52;96596.19;;;21.13;53.07
22862;BME280;11598;50.652;6.172;2022-08-21T11:09:10;96590.88;;;21.21;51.32
22862;BME280;11598;50.652;6.172;2022-08-21T11:29:48;96571.50;;;21.06;51.66
22862;BME280;11598;50.652;6.172;2022-08-21T11:40:15;96580.97;;;21.38;51.78
22862;BME280;11598;50.652;6.172;2022-08-21T11:50:28;96578.66;;;21.43;51.14
22862;BME280;11598;50.652;6.172;2022-08-21T12:00:47;96576.81;;;21.59;51.65
22862;BME280;11598;50.652;6.172;2022-08-21T12:11:07;96573.56;;;21.57;51.25
22862;BME280;11598;50.652;6.172;2022-08-21T12:31:25;96572.41;;;22.04;50.65
22862;BME280;11598;50.652;6.172;2022-08-21T12:41:34;96577.94;;;21.79;51.28
22862;BME280;11598;50.652;6.172;2022-08-21T13:02:18;96563.38;;;21.68;51.07
22862;BME280;11598;50.652;6.172;2022-08-21T13:12:21;96560.69;;;21.53;51.59
22862;BME280;11598;50.652;6.172;2022-08-21T13:22:24;96559.16;;;21.59;50.41
22862;BME280;11598;50.652;6.172;2022-08-21T13:32:26;96562.38;;;21.99;50.91
22862;BME280;11598;50.652;6.172;2022-08-21T13:42:27;96562.91;;;21.94;50.36
22862;BME280;11598;50.652;6.172;2022-08-21T13:52:28;96567.31;;;21.87;50.49
22862;BME280;11598;50.652;6.172;2022-08-21T14:02:29;96566.38;;;21.80;49.99
22862;BME280;11598;50.652;6.172;2022-08-21T14:12:34;96559.50;;;21.56;49.90
22862;BME280;11598;50.652;6.172;2022-08-21T14:32:41;96558.44;;;21.27;50.32
22862;BME280;11598;50.652;6.172;2022-08-21T14:42:43;96554.75;;;21.51;49.38
22862;BME280;11598;50.652;6.172;2022-08-21T14:52:44;96550.13;;;21.53;49.20
22862;BME280;11598;50.652;6.172;2022-08-21T15:02:46;96547.22;;;21.02;49.74
22862;BME280;11598;50.652;6.172;2022-08-21T15:12:46;96556.53;;;20.44;51.75
22862;BME280;11598;50.652;6.172;2022-08-21T15:22:47;96539.19;;;20.18;53.79
22862;BME280;11598;50.652;6.172;2022-08-21T15:32:47;96544.16;;;20.13;53.96
22862;BME280;11598;50.652;6.172;2022-08-21T15:42:48;96552.53;;;20.17;54.45
22862;BME280;11598;50.652;6.172;2022-08-21T15:52:48;96548.50;;;20.29;55.04
22862;BME280;11598;50.652;6.172;2022-08-21T16:02:54;96542.91;;;20.32;54.27
22862;BME280;11598;50.652;6.172;2022-08-21T16:13:07;96547.63;;;20.05;55.69
22862;BME280;11598;50.652;6.172;2022-08-21T16:23:11;96547.56;;;19.82;55.69
22862;BME280;11598;50.652;6.172;2022-08-21T16:43:25;96549.41;;;19.74;56.73
22862;BME280;11598;50.652;6.172;2022-08-21T16:53:27;96548.53;;;19.81;56.57
22862;BME280;11598;50.652;6.172;2022-08-21T17:03:33;96544.28;;;19.64;57.21
22862;BME280;11598;50.652;6.172;2022-08-21T17:13:35;96556.53;;;19.32;57.04
22862;BME280;11598;50.652;6.172;2022-08-21T17:23:36;96550.94;;;19.11;57.23
22862;BME280;11598;50.652;6.172;2022-08-21T17:33:43;96542.22;;;18.94;57.46
22862;BME280;11598;50.652;6.172;2022-08-21T17:43:49;96538.28;;;18.82;57.32
22862;BME280;11598;50.652;6.172;2022-08-21T17:53:50;96539.88;;;18.58;58.35
22862;BME280;11598;50.652;6.172;2022-08-21T18:03:51;96550.97;;;18.35;58.84
22862;BME280;11598;50.652;6.172;2022-08-21T18:13:53;96539.94;;;18.15;59.72
22862;BME280;11598;50.652;6.172;2022-08-21T18:23:54;96539.19;;;17.97;60.04
22862;BME280;11598;50.652;6.172;2022-08-21T18:33:55;96544.97;;;17.74;61.64
22862;BME280;11598;50.652;6.172;2022-08-21T18:43:55;96551.28;;;17.56;61.39
22862;BME280;11598;50.652;6.172;2022-08-21T18:53:56;96557.31;;;17.48;61.33
22862;BME280;11598;50.652;6.172;2022-08-21T19:03:56;96565.44;;;17.37;61.33
22862;BME280;11598;50.652;6.172;2022-08-21T19:13:57;96559.41;;;17.44;61.12
22862;BME280;11598;50.652;6.172;2022-08-21T19:23:57;96565.00;;;17.49;61.00
22862;BME280;11598;50.652;6.172;2022-08-21T19:34:08;96566.94;;;17.39;61.85
22862;BME280;11598;50.652;6.172;2022-08-21T19:44:20;96578.91;;;17.16;63.53
22862;BME280;11598;50.652;6.172;2022-08-21T19:54:30;96572.00;;;16.79;65.27
22862;BME280;11598;50.652;6.172;2022-08-21T20:04:32;96574.06;;;16.39;66.68
22862;BME280;11598;50.652;6.172;2022-08-21T20:14:34;96573.09;;;16.13;68.40
22862;BME280;11598;50.652;6.172;2022-08-21T20:24:37;96570.28;;;15.96;68.42
22862;BME280;11598;50.652;6.172;2022-08-21T20:34:39;96569.38;;;15.88;69.88
22862;BME280;11598;50.652;6.172;2022-08-21T20:44:39;96561.38;;;15.79;71.18
22862;BME280;11598;50.652;6.172;2022-08-21T20:54:48;96564.44;;;15.75;71.78
22862;BME280;11598;50.652;6.172;2022-08-21T21:04:54;96563.06;;;15.71;72.19
22862;BME280;11598;50.652;6.172;2022-08-21T21:15:05;96555.47;;;15.68;72.33
22862;BME280;11598;50.652;6.172;2022-08-21T21:25:15;96553.16;;;15.64;72.46
22862;BME280;11598;50.652;6.172;2022-08-21T21:35:21;96562.56;;;15.57;73.11
22862;BME280;11598;50.652;6.172;2022-08-21T21:45:28;96557.59;;;15.44;73.53
22862;BME280;11598;50.652;6.172;2022-08-21T22:05:51;96566.50;;;15.61;72.76
22862;BME280;11598;50.652;6.172;2022-08-21T22:15:57;96570.00;;;15.42;73.32
22862;BME280;11598;50.652;6.172;2022-08-21T22:26:06;96575.56;;;15.30;73.21
22862;BME280;11598;50.652;6.172;2022-08-21T22:36:19;96579.41;;;15.35;72.79
22862;BME280;11598;50.652;6.172;2022-08-21T22:46:37;96574.22;;;15.73;69.92
22862;BME280;11598;50.652;6.172;2022-08-21T22:56:43;96575.44;;;15.88;69.75
22862;BME280;11598;50.652;6.172;2022-08-21T23:06:51;96572.22;;;15.57;71.83
22862;BME280;11598;50.652;6.172;2022-08-21T23:58:15;96542.78;;;14.38;75.77
